sensor_id;sensor_type;location;lat;lon;timestamp;pressure;altitude;pressure_sealevel;temperature;humidity
56582;BME280;42463;52.214;21.238;2022-09-27T00:01:14;99116.11;;;13.63;70.94
56582;BME280;42463;52.214;21.238;2022-09-27T00:03:39;99123.88;;;13.61;70.67
56582;BME280;42463;52.214;21.238;2022-09-27T00:06:07;99122.41;;;13.59;70.84
56582;BME280;42463;52.214;21.238;2022-09-27T00:08:34;99115.89;;;13.57;71.00
56582;BME280;42463;52.214;21.238;2022-09-27T00:11:01;99115.00;;;13.58;71.06
56582;BME280;42463;52.214;21.238;2022-09-27T00:13:26;99113.92;;;13.60;70.96
56582;BME280;42463;52.214;21.238;2022-09-27T00:15:56;99109.83;;;13.60;70.93
56582;BME280;42463;52.214;21.238;2022-09-27T00:18:21;99106.66;;;13.61;70.88
56582;BME280;42463;52.214;21.238;2022-09-27T00:20:45;99105.62;;;13.59;70.78
56582;BME280;42463;52.214;21.238;2022-09-27T00:23:09;99106.27;;;13.57;70.71
56582;BME280;42463;52.214;21.238;2022-09-27T00:25:34;99103.67;;;13.56;71.02
56582;BME280;42463;52.214;21.238;2022-09-27T00:27:59;99101.98;;;13.55;71.04
56582;BME280;42463;52.214;21.238;2022-09-27T00:30:23;99100.08;;;13.56;71.07
56582;BME280;42463;52.214;21.238;2022-09-27T00:32:48;99098.76;;;13.53;71.26
56582;BME280;42463;52.214;21.238;2022-09-27T00:35:14;99095.92;;;13.54;71.25
56582;BME280;42463;52.214;21.238;2022-09-27T00:37:39;99095.64;;;13.55;71.17
56582;BME280;42463;52.214;21.238;2022-09-27T00:40:05;99093.15;;;13.56;71.63
56582;BME280;42463;52.214;21.238;2022-09-27T00:42:31;99092.84;;;13.57;71.72
56582;BME280;42463;52.214;21.238;2022-09-27T00:45:15;99092.43;;;13.58;71.53
56582;BME280;42463;52.214;21.238;2022-09-27T00:47:48;99088.92;;;13.57;71.68
56582;BME280;42463;52.214;21.238;2022-09-27T00:50:21;99084.83;;;13.57;71.84
56582;BME280;42463;52.214;21.238;2022-09-27T00:52:53;99082.67;;;13.59;71.96
56582;BME280;42463;52.214;21.238;2022-09-27T00:55:22;99079.79;;;13.61;72.01
56582;BME280;42463;52.214;21.238;2022-09-27T00:57:49;99077.58;;;13.63;71.88
56582;BME280;42463;52.214;21.238;2022-09-27T01:04:11;99069.60;;;13.64;71.91
56582;BME280;42463;52.214;21.238;2022-09-27T01:06:38;99070.17;;;13.64;71.98
56582;BME280;42463;52.214;21.238;2022-09-27T01:09:02;99068.39;;;13.64;71.91
56582;BME280;42463;52.214;21.238;2022-09-27T01:11:37;99067.09;;;13.63;72.02
56582;BME280;42463;52.214;21.238;2022-09-27T01:16:59;99060.20;;;13.64;72.01
56582;BME280;42463;52.214;21.238;2022-09-27T01:19:45;99060.17;;;13.63;71.89
56582;BME280;42463;52.214;21.238;2022-09-27T01:22:16;99058.00;;;13.65;72.01
56582;BME280;42463;52.214;21.238;2022-09-27T01:24:59;99057.76;;;13.66;72.19
56582;BME280;42463;52.214;21.238;2022-09-27T01:27:53;99049.86;;;13.66;71.88
56582;BME280;42463;52.214;21.238;2022-09-27T01:30:26;99052.56;;;13.67;72.21
56582;BME280;42463;52.214;21.238;2022-09-27T01:32:57;99049.78;;;13.67;72.19
56582;BME280;42463;52.214;21.238;2022-09-27T01:35:33;99044.61;;;13.67;72.34
56582;BME280;42463;52.214;21.238;2022-09-27T01:38:07;99043.36;;;13.69;72.15
56582;BME280;42463;52.214;21.238;2022-09-27T01:40:40;99043.48;;;13.70;72.25
56582;BME280;42463;52.214;21.238;2022-09-27T01:43:33;99042.03;;;13.70;72.07
56582;BME280;42463;52.214;21.238;2022-09-27T01:46:06;99039.65;;;13.69;72.27
56582;BME280;42463;52.214;21.238;2022-09-27T01:48:51;99038.66;;;13.69;72.44
56582;BME280;42463;52.214;21.238;2022-09-27T01:51:21;99039.27;;;13.69;72.53
56582;BME280;42463;52.214;21.238;2022-09-27T01:53:51;99048.34;;;13.68;72.40
56582;BME280;42463;52.214;21.238;2022-09-27T01:56:48;99054.67;;;13.58;72.43
56582;BME280;42463;52.214;21.238;2022-09-27T01:59:20;99050.81;;;13.50;72.89
56582;BME280;42463;52.214;21.238;2022-09-27T02:01:55;99048.16;;;13.44;73.19
56582;BME280;42463;52.214;21.238;2022-09-27T02:04:25;99045.38;;;13.44;73.58
56582;BME280;42463;52.214;21.238;2022-09-27T02:07:04;99045.95;;;13.46;73.73
56582;BME280;42463;52.214;21.238;2022-09-27T02:09:35;99046.66;;;13.48;73.66
56582;BME280;42463;52.214;21.238;2022-09-27T02:12:27;99047.66;;;13.49;73.67
56582;BME280;42463;52.214;21.238;2022-09-27T02:14:56;99047.81;;;13.47;73.73
56582;BME280;42463;52.214;21.238;2022-09-27T02:17:29;99042.27;;;13.49;74.01
56582;BME280;42463;52.214;21.238;2022-09-27T02:20:02;99041.21;;;13.53;73.83
56582;BME280;42463;52.214;21.238;2022-09-27T02:22:41;99035.73;;;13.57;74.07
56582;BME280;42463;52.214;21.238;2022-09-27T02:25:15;99026.63;;;13.60;73.99
56582;BME280;42463;52.214;21.238;2022-09-27T02:27:49;99023.36;;;13.64;73.92
56582;BME280;42463;52.214;21.238;2022-09-27T02:30:16;99025.45;;;13.68;73.83
56582;BME280;42463;52.214;21.238;2022-09-27T02:32:43;99022.81;;;13.71;73.78
56582;BME280;42463;52.214;21.238;2022-09-27T02:35:13;99020.92;;;13.72;73.69
56582;BME280;42463;52.214;21.238;2022-09-27T02:37:40;99018.79;;;13.73;73.63
56582;BME280;42463;52.214;21.238;2022-09-27T02:40:06;99020.50;;;13.74;73.60
56582;BME280;42463;52.214;21.238;2022-09-27T02:42:32;99018.73;;;13.75;73.39
56582;BME280;42463;52.214;21.238;2022-09-27T02:44:58;99016.62;;;13.75;73.52
56582;BME280;42463;52.214;21.238;2022-09-27T02:47:32;99019.41;;;13.74;73.45
56582;BME280;42463;52.214;21.238;2022-09-27T02:50:16;99021.48;;;13.74;73.41
56582;BME280;42463;52.214;21.238;2022-09-27T02:53:18;99016.98;;;13.71;73.39
56582;BME280;42463;52.214;21.238;2022-09-27T02:56:00;99014.41;;;13.71;73.62
56582;BME280;42463;52.214;21.238;2022-09-27T02:58:56;99016.74;;;13.70;73.38
56582;BME280;42463;52.214;21.238;2022-09-27T03:01:40;99014.64;;;13.64;73.61
56582;BME280;42463;52.214;21.238;2022-09-27T03:04:24;99012.41;;;13.62;74.00
56582;BME280;42463;52.214;21.238;2022-09-27T03:06:54;99010.06;;;13.64;74.14
56582;BME280;42463;52.214;21.238;2022-09-27T03:09:22;99008.73;;;13.67;74.13
56582;BME280;42463;52.214;21.238;2022-09-27T03:11:47;99004.97;;;13.70;73.97
56582;BME280;42463;52.214;21.238;2022-09-27T03:14:11;99009.06;;;13.72;73.94
56582;BME280;42463;52.214;21.238;2022-09-27T03:16:42;99006.54;;;13.72;73.85
56582;BME280;42463;52.214;21.238;2022-09-27T03:19:42;99005.58;;;13.74;73.80
56582;BME280;42463;52.214;21.238;2022-09-27T03:22:42;99008.19;;;13.74;73.77
56582;BME280;42463;52.214;21.238;2022-09-27T03:25:08;99005.04;;;13.74;73.90
56582;BME280;42463;52.214;21.238;2022-09-27T03:27:33;99004.97;;;13.70;73.94
56582;BME280;42463;52.214;21.238;2022-09-27T03:29:58;99002.23;;;13.66;73.89
56582;BME280;42463;52.214;21.238;2022-09-27T03:32:23;98997.07;;;13.67;73.98
56582;BME280;42463;52.214;21.238;2022-09-27T03:35:27;98996.90;;;13.70;74.14
56582;BME280;42463;52.214;21.238;2022-09-27T03:37:52;98992.75;;;13.72;74.11
56582;BME280;42463;52.214;21.238;2022-09-27T03:40:16;98993.98;;;13.73;74.02
56582;BME280;42463;52.214;21.238;2022-09-27T03:42:41;98994.23;;;13.76;74.01
56582;BME280;42463;52.214;21.238;2022-09-27T03:45:07;98994.29;;;13.77;73.77
56582;BME280;42463;52.214;21.238;2022-09-27T03:47:31;98991.42;;;13.76;74.05
56582;BME280;42463;52.214;21.238;2022-09-27T03:49:56;98992.80;;;13.77;73.88
56582;BME280;42463;52.214;21.238;2022-09-27T03:52:21;98986.88;;;13.77;73.63
56582;BME280;42463;52.214;21.238;2022-09-27T03:54:46;98986.82;;;13.72;73.80
56582;BME280;42463;52.214;21.238;2022-09-27T03:57:11;98980.48;;;13.70;73.98
56582;BME280;42463;52.214;21.238;2022-09-27T03:59:38;98972.99;;;13.71;74.05
56582;BME280;42463;52.214;21.238;2022-09-27T04:02:21;98974.38;;;13.73;74.07
56582;BME280;42463;52.214;21.238;2022-09-27T04:05:06;98962.14;;;13.74;74.01
56582;BME280;42463;52.214;21.238;2022-09-27T04:07:31;98958.42;;;13.74;74.09
56582;BME280;42463;52.214;21.238;2022-09-27T04:09:55;98958.03;;;13.74;74.02
56582;BME280;42463;52.214;21.238;2022-09-27T04:12:20;98957.63;;;13.76;73.92
56582;BME280;42463;52.214;21.238;2022-09-27T04:14:45;98960.66;;;13.74;73.99
56582;BME280;42463;52.214;21.238;2022-09-27T04:17:42;98963.31;;;13.73;73.82
56582;BME280;42463;52.214;21.238;2022-09-27T04:20:33;98965.96;;;13.69;74.02
56582;BME280;42463;52.214;21.238;2022-09-27T04:23:05;98960.15;;;13.70;73.82
56582;BME280;42463;52.214;21.238;2022-09-27T04:25:30;98957.36;;;13.70;74.04
56582;BME280;42463;52.214;21.238;2022-09-27T04:27:57;98957.58;;;13.68;74.22
56582;BME280;42463;52.214;21.238;2022-09-27T04:30:23;98955.05;;;13.68;74.03
56582;BME280;42463;52.214;21.238;2022-09-27T04:33:06;98953.81;;;13.66;74.04
56582;BME280;42463;52.214;21.238;2022-09-27T04:35:49;98943.64;;;13.64;74.13
56582;BME280;42463;52.214;21.238;2022-09-27T04:38:34;98946.02;;;13.65;74.15
56582;BME280;42463;52.214;21.238;2022-09-27T04:40:59;98945.98;;;13.64;74.11
56582;BME280;42463;52.214;21.238;2022-09-27T04:43:24;98945.27;;;13.64;74.12
56582;BME280;42463;52.214;21.238;2022-09-27T04:45:48;98942.64;;;13.64;74.20
56582;BME280;42463;52.214;21.238;2022-09-27T04:48:13;98942.73;;;13.65;74.31
56582;BME280;42463;52.214;21.238;2022-09-27T04:50:38;98951.25;;;13.62;73.91
56582;BME280;42463;52.214;21.238;2022-09-27T04:53:03;98957.91;;;13.50;74.03
56582;BME280;42463;52.214;21.238;2022-09-27T04:55:28;98964.25;;;13.34;74.34
56582;BME280;42463;52.214;21.238;2022-09-27T04:57:52;98959.73;;;13.25;74.63
56582;BME280;42463;52.214;21.238;2022-09-27T05:00:18;98957.95;;;13.20;75.13
56582;BME280;42463;52.214;21.238;2022-09-27T05:02:45;98962.86;;;13.19;75.84
56582;BME280;42463;52.214;21.238;2022-09-27T05:05:36;98963.27;;;13.07;75.61
56582;BME280;42463;52.214;21.238;2022-09-27T05:08:01;98964.94;;;13.03;76.02
56582;BME280;42463;52.214;21.238;2022-09-27T05:10:41;98965.01;;;13.00;76.35
56582;BME280;42463;52.214;21.238;2022-09-27T05:13:06;98962.73;;;12.99;76.40
56582;BME280;42463;52.214;21.238;2022-09-27T05:15:32;98963.02;;;13.04;76.70
56582;BME280;42463;52.214;21.238;2022-09-27T05:18:22;98966.95;;;13.03;76.24
56582;BME280;42463;52.214;21.238;2022-09-27T05:21:25;98963.92;;;12.99;76.55
56582;BME280;42463;52.214;21.238;2022-09-27T05:23:50;98962.71;;;13.02;76.76
56582;BME280;42463;52.214;21.238;2022-09-27T05:26:14;98970.98;;;13.07;76.55
56582;BME280;42463;52.214;21.238;2022-09-27T05:28:39;98967.55;;;13.13;76.34
56582;BME280;42463;52.214;21.238;2022-09-27T05:31:05;98965.82;;;13.12;76.05
56582;BME280;42463;52.214;21.238;2022-09-27T05:33:30;98966.02;;;13.10;76.47
56582;BME280;42463;52.214;21.238;2022-09-27T05:36:15;98965.55;;;13.12;76.44
56582;BME280;42463;52.214;21.238;2022-09-27T05:38:40;98962.88;;;13.10;76.08
56582;BME280;42463;52.214;21.238;2022-09-27T05:41:06;98964.90;;;13.07;76.37
56582;BME280;42463;52.214;21.238;2022-09-27T05:43:31;98960.95;;;13.08;76.40
56582;BME280;42463;52.214;21.238;2022-09-27T05:45:57;98961.83;;;13.13;76.57
56582;BME280;42463;52.214;21.238;2022-09-27T05:48:23;98958.10;;;13.20;76.61
56582;BME280;42463;52.214;21.238;2022-09-27T05:51:01;98956.69;;;13.27;76.42
56582;BME280;42463;52.214;21.238;2022-09-27T05:53:27;98951.58;;;13.29;76.28
56582;BME280;42463;52.214;21.238;2022-09-27T05:55:52;98956.08;;;13.35;76.46
56582;BME280;42463;52.214;21.238;2022-09-27T05:58:22;98957.72;;;13.39;76.22
56582;BME280;42463;52.214;21.238;2022-09-27T06:01:04;98959.13;;;13.44;76.14
56582;BME280;42463;52.214;21.238;2022-09-27T06:03:52;98959.31;;;13.47;75.95
56582;BME280;42463;52.214;21.238;2022-09-27T06:06:38;98955.75;;;13.51;75.89
56582;BME280;42463;52.214;21.238;2022-09-27T06:09:04;98954.36;;;13.52;75.81
56582;BME280;42463;52.214;21.238;2022-09-27T06:11:28;98955.52;;;13.55;75.88
56582;BME280;42463;52.214;21.238;2022-09-27T06:13:53;98953.48;;;13.54;75.55
56582;BME280;42463;52.214;21.238;2022-09-27T06:16:18;98953.77;;;13.55;75.60
56582;BME280;42463;52.214;21.238;2022-09-27T06:18:43;98955.30;;;13.55;75.51
56582;BME280;42463;52.214;21.238;2022-09-27T06:21:07;98956.31;;;13.53;75.09
56582;BME280;42463;52.214;21.238;2022-09-27T06:23:34;98954.04;;;13.52;75.19
56582;BME280;42463;52.214;21.238;2022-09-27T06:26:08;98951.68;;;13.53;75.23
56582;BME280;42463;52.214;21.238;2022-09-27T06:28:38;98957.25;;;13.50;74.92
56582;BME280;42463;52.214;21.238;2022-09-27T06:31:05;98962.04;;;13.50;75.18
56582;BME280;42463;52.214;21.238;2022-09-27T06:33:43;98964.70;;;13.50;75.08
56582;BME280;42463;52.214;21.238;2022-09-27T06:36:09;98963.70;;;13.47;74.92
56582;BME280;42463;52.214;21.238;2022-09-27T06:38:35;98961.89;;;13.44;75.12
56582;BME280;42463;52.214;21.238;2022-09-27T06:41:23;98962.60;;;13.49;75.30
56582;BME280;42463;52.214;21.238;2022-09-27T06:44:01;98958.34;;;13.52;74.86
56582;BME280;42463;52.214;21.238;2022-09-27T06:46:28;98961.92;;;13.54;75.10
56582;BME280;42463;52.214;21.238;2022-09-27T06:49:03;98956.18;;;13.54;75.06
56582;BME280;42463;52.214;21.238;2022-09-27T06:51:29;98961.86;;;13.58;75.04
56582;BME280;42463;52.214;21.238;2022-09-27T06:53:53;98959.14;;;13.61;75.30
56582;BME280;42463;52.214;21.238;2022-09-27T06:56:18;98958.58;;;13.64;74.92
56582;BME280;42463;52.214;21.238;2022-09-27T06:58:47;98959.24;;;13.56;74.70
56582;BME280;42463;52.214;21.238;2022-09-27T07:01:38;98965.17;;;13.51;75.07
56582;BME280;42463;52.214;21.238;2022-09-27T07:04:21;98967.44;;;13.45;75.24
56582;BME280;42463;52.214;21.238;2022-09-27T07:07:00;98967.53;;;13.36;75.33
56582;BME280;42463;52.214;21.238;2022-09-27T07:09:31;98970.58;;;13.32;75.72
56582;BME280;42463;52.214;21.238;2022-09-27T07:11:56;98971.53;;;13.35;76.02
56582;BME280;42463;52.214;21.238;2022-09-27T07:14:22;98963.11;;;13.44;76.32
56582;BME280;42463;52.214;21.238;2022-09-27T07:16:49;98963.36;;;13.55;76.40
56582;BME280;42463;52.214;21.238;2022-09-27T07:19:14;98959.77;;;13.66;76.13
56582;BME280;42463;52.214;21.238;2022-09-27T07:21:41;98948.93;;;13.75;75.99
56582;BME280;42463;52.214;21.238;2022-09-27T07:24:06;98942.45;;;13.79;75.73
56582;BME280;42463;52.214;21.238;2022-09-27T07:26:31;98948.31;;;13.84;75.43
56582;BME280;42463;52.214;21.238;2022-09-27T07:28:56;98950.89;;;13.85;75.07
56582;BME280;42463;52.214;21.238;2022-09-27T07:31:23;98953.23;;;13.84;75.11
56582;BME280;42463;52.214;21.238;2022-09-27T07:33:48;98960.20;;;13.86;75.29
56582;BME280;42463;52.214;21.238;2022-09-27T07:36:15;98967.84;;;13.88;74.97
56582;BME280;42463;52.214;21.238;2022-09-27T07:38:41;98971.03;;;13.91;75.09
56582;BME280;42463;52.214;21.238;2022-09-27T07:41:10;98969.73;;;13.95;75.23
56582;BME280;42463;52.214;21.238;2022-09-27T07:43:36;98969.66;;;13.97;74.97
56582;BME280;42463;52.214;21.238;2022-09-27T07:46:00;98975.45;;;13.93;74.57
56582;BME280;42463;52.214;21.238;2022-09-27T07:48:30;98981.09;;;13.85;74.65
56582;BME280;42463;52.214;21.238;2022-09-27T07:51:06;98984.86;;;13.81;75.12
56582;BME280;42463;52.214;21.238;2022-09-27T07:53:39;98983.27;;;13.79;75.18
56582;BME280;42463;52.214;21.238;2022-09-27T07:56:26;98979.42;;;13.75;75.46
56582;BME280;42463;52.214;21.238;2022-09-27T07:58:52;98982.29;;;13.81;75.50
56582;BME280;42463;52.214;21.238;2022-09-27T08:01:17;98977.55;;;13.86;75.77
56582;BME280;42463;52.214;21.238;2022-09-27T08:03:41;98971.75;;;13.94;75.91
56582;BME280;42463;52.214;21.238;2022-09-27T08:06:07;98972.08;;;14.01;75.56
56582;BME280;42463;52.214;21.238;2022-09-27T08:08:32;98974.91;;;14.06;75.61
56582;BME280;42463;52.214;21.238;2022-09-27T08:10:59;98975.61;;;14.14;75.34
56582;BME280;42463;52.214;21.238;2022-09-27T08:13:24;98977.67;;;14.21;75.05
56582;BME280;42463;52.214;21.238;2022-09-27T08:15:50;98975.08;;;14.26;75.04
56582;BME280;42463;52.214;21.238;2022-09-27T08:18:15;98971.37;;;14.32;74.86
56582;BME280;42463;52.214;21.238;2022-09-27T08:20:58;98964.83;;;14.38;74.82
56582;BME280;42463;52.214;21.238;2022-09-27T08:23:31;98955.76;;;14.43;74.25
56582;BME280;42463;52.214;21.238;2022-09-27T08:26:10;98950.61;;;14.48;73.92
56582;BME280;42463;52.214;21.238;2022-09-27T08:28:49;98945.07;;;14.53;73.79
56582;BME280;42463;52.214;21.238;2022-09-27T08:31:20;98945.52;;;14.54;73.29
56582;BME280;42463;52.214;21.238;2022-09-27T08:33:49;98949.67;;;14.56;73.11
56582;BME280;42463;52.214;21.238;2022-09-27T08:36:13;98949.33;;;14.58;72.84
56582;BME280;42463;52.214;21.238;2022-09-27T08:38:38;98954.23;;;14.59;73.14
56582;BME280;42463;52.214;21.238;2022-09-27T08:41:07;98953.77;;;14.61;72.55
56582;BME280;42463;52.214;21.238;2022-09-27T08:43:40;98948.83;;;14.64;72.58
56582;BME280;42463;52.214;21.238;2022-09-27T08:46:24;98951.02;;;14.65;72.35
56582;BME280;42463;52.214;21.238;2022-09-27T08:48:58;98946.05;;;14.67;72.14
56582;BME280;42463;52.214;21.238;2022-09-27T08:51:29;98951.06;;;14.71;72.16
56582;BME280;42463;52.214;21.238;2022-09-27T08:53:59;98948.91;;;14.72;71.58
56582;BME280;42463;52.214;21.238;2022-09-27T08:56:24;98955.15;;;14.75;71.66
56582;BME280;42463;52.214;21.238;2022-09-27T08:58:54;98962.94;;;14.80;71.74
56582;BME280;42463;52.214;21.238;2022-09-27T09:01:28;98973.67;;;14.84;71.32
56582;BME280;42463;52.214;21.238;2022-09-27T09:04:09;98976.19;;;14.88;71.27
56582;BME280;42463;52.214;21.238;2022-09-27T09:06:41;98977.18;;;14.87;71.47
56582;BME280;42463;52.214;21.238;2022-09-27T09:09:17;98973.85;;;14.91;70.96
56582;BME280;42463;52.214;21.238;2022-09-27T09:12:02;98974.02;;;14.95;70.85
56582;BME280;42463;52.214;21.238;2022-09-27T09:14:59;98978.02;;;15.00;70.92
56582;BME280;42463;52.214;21.238;2022-09-27T09:17:32;98973.77;;;15.03;70.83
56582;BME280;42463;52.214;21.238;2022-09-27T09:20:24;98971.66;;;15.06;70.90
56582;BME280;42463;52.214;21.238;2022-09-27T09:23:07;98971.37;;;15.08;71.09
56582;BME280;42463;52.214;21.238;2022-09-27T09:25:41;98973.30;;;15.13;71.07
56582;BME280;42463;52.214;21.238;2022-09-27T09:28:21;98972.48;;;15.17;71.07
56582;BME280;42463;52.214;21.238;2022-09-27T09:30:58;98978.10;;;15.15;71.09
56582;BME280;42463;52.214;21.238;2022-09-27T09:33:30;98973.05;;;15.09;71.13
56582;BME280;42463;52.214;21.238;2022-09-27T09:35:56;98969.02;;;15.05;71.11
56582;BME280;42463;52.214;21.238;2022-09-27T09:38:28;98961.73;;;15.09;71.19
56582;BME280;42463;52.214;21.238;2022-09-27T09:41:01;98960.88;;;15.16;71.19
56582;BME280;42463;52.214;21.238;2022-09-27T09:43:32;98956.35;;;15.24;71.16
56582;BME280;42463;52.214;21.238;2022-09-27T09:46:02;98955.99;;;15.30;71.06
56582;BME280;42463;52.214;21.238;2022-09-27T09:48:36;98950.73;;;15.32;70.60
56582;BME280;42463;52.214;21.238;2022-09-27T09:51:05;98950.05;;;15.25;70.46
56582;BME280;42463;52.214;21.238;2022-09-27T09:53:39;98947.54;;;15.14;70.47
56582;BME280;42463;52.214;21.238;2022-09-27T09:56:11;98949.79;;;15.16;71.10
56582;BME280;42463;52.214;21.238;2022-09-27T09:58:43;98950.38;;;15.15;70.30
56582;BME280;42463;52.214;21.238;2022-09-27T10:01:16;98947.45;;;15.14;70.86
56582;BME280;42463;52.214;21.238;2022-09-27T10:03:41;98947.26;;;15.23;71.10
56582;BME280;42463;52.214;21.238;2022-09-27T10:06:09;98942.52;;;15.34;71.00
56582;BME280;42463;52.214;21.238;2022-09-27T10:08:35;98942.66;;;15.44;70.43
56582;BME280;42463;52.214;21.238;2022-09-27T10:11:20;98940.05;;;15.46;69.34
56582;BME280;42463;52.214;21.238;2022-09-27T10:13:54;98932.95;;;15.45;69.44
56582;BME280;42463;52.214;21.238;2022-09-27T10:16:20;98936.25;;;15.53;69.28
56582;BME280;42463;52.214;21.238;2022-09-27T10:18:45;98939.20;;;15.61;68.82
56582;BME280;42463;52.214;21.238;2022-09-27T10:21:13;98940.77;;;15.66;68.46
56582;BME280;42463;52.214;21.238;2022-09-27T10:24:03;98939.83;;;15.71;68.18
56582;BME280;42463;52.214;21.238;2022-09-27T10:26:47;98936.87;;;15.71;68.54
56582;BME280;42463;52.214;21.238;2022-09-27T10:29:22;98934.73;;;15.79;68.34
56582;BME280;42463;52.214;21.238;2022-09-27T10:31:46;98934.79;;;15.81;66.53
56582;BME280;42463;52.214;21.238;2022-09-27T10:34:31;98930.33;;;15.74;66.33
56582;BME280;42463;52.214;21.238;2022-09-27T10:37:12;98929.61;;;15.64;66.73
56582;BME280;42463;52.214;21.238;2022-09-27T10:39:48;98924.39;;;15.70;67.33
56582;BME280;42463;52.214;21.238;2022-09-27T10:42:31;98914.44;;;15.78;66.89
56582;BME280;42463;52.214;21.238;2022-09-27T10:44:57;98906.37;;;15.88;66.81
56582;BME280;42463;52.214;21.238;2022-09-27T10:47:32;98905.89;;;15.94;66.81
56582;BME280;42463;52.214;21.238;2022-09-27T10:50:13;98904.79;;;15.90;65.74
56582;BME280;42463;52.214;21.238;2022-09-27T10:52:50;98898.48;;;15.88;66.47
56582;BME280;42463;52.214;21.238;2022-09-27T10:55:25;98896.06;;;15.98;66.55
56582;BME280;42463;52.214;21.238;2022-09-27T10:57:53;98896.58;;;16.09;66.57
56582;BME280;42463;52.214;21.238;2022-09-27T11:00:23;98896.31;;;16.19;66.22
56582;BME280;42463;52.214;21.238;2022-09-27T11:02:52;98899.23;;;16.23;64.75
56582;BME280;42463;52.214;21.238;2022-09-27T11:05:31;98899.30;;;16.19;64.21
56582;BME280;42463;52.214;21.238;2022-09-27T11:07:58;98901.43;;;16.20;64.96
56582;BME280;42463;52.214;21.238;2022-09-27T11:10:44;98900.92;;;16.31;65.42
56582;BME280;42463;52.214;21.238;2022-09-27T11:13:17;98899.83;;;16.40;64.80
56582;BME280;42463;52.214;21.238;2022-09-27T11:15:54;98897.20;;;16.47;64.63
56582;BME280;42463;52.214;21.238;2022-09-27T11:18:25;98895.77;;;16.56;64.36
56582;BME280;42463;52.214;21.238;2022-09-27T11:21:01;98893.56;;;16.59;63.82
56582;BME280;42463;52.214;21.238;2022-09-27T11:23:49;98893.34;;;16.59;63.11
56582;BME280;42463;52.214;21.238;2022-09-27T11:26:30;98887.44;;;16.61;63.27
56582;BME280;42463;52.214;21.238;2022-09-27T11:29:13;98880.94;;;16.59;62.90
56582;BME280;42463;52.214;21.238;2022-09-27T11:32:12;98879.69;;;16.59;62.96
56582;BME280;42463;52.214;21.238;2022-09-27T11:34:51;98874.55;;;16.59;63.03
56582;BME280;42463;52.214;21.238;2022-09-27T11:37:26;98872.80;;;16.63;63.17
56582;BME280;42463;52.214;21.238;2022-09-27T11:40:04;98869.29;;;16.63;62.95
56582;BME280;42463;52.214;21.238;2022-09-27T11:45:44;98860.16;;;16.49;63.11
56582;BME280;42463;52.214;21.238;2022-09-27T11:48:21;98860.05;;;16.45;63.40
56582;BME280;42463;52.214;21.238;2022-09-27T11:51:03;98864.15;;;16.45;63.37
56582;BME280;42463;52.214;21.238;2022-09-27T11:53:47;98870.90;;;16.41;63.04
56582;BME280;42463;52.214;21.238;2022-09-27T11:56:24;98867.61;;;16.37;63.21
56582;BME280;42463;52.214;21.238;2022-09-27T11:59:04;98866.34;;;16.32;63.57
56582;BME280;42463;52.214;21.238;2022-09-27T12:01:40;98867.43;;;16.27;63.18
56582;BME280;42463;52.214;21.238;2022-09-27T12:04:23;98871.89;;;16.26;63.46
56582;BME280;42463;52.214;21.238;2022-09-27T12:06:56;98874.35;;;16.21;63.33
56582;BME280;42463;52.214;21.238;2022-09-27T12:09:24;98875.52;;;16.10;63.70
56582;BME280;42463;52.214;21.238;2022-09-27T12:11:54;98873.79;;;16.02;64.04
56582;BME280;42463;52.214;21.238;2022-09-27T12:14:27;98870.36;;;15.98;64.21
56582;BME280;42463;52.214;21.238;2022-09-27T12:16:55;98866.02;;;15.99;64.01
56582;BME280;42463;52.214;21.238;2022-09-27T12:19:24;98863.77;;;15.98;64.00
56582;BME280;42463;52.214;21.238;2022-09-27T12:22:02;98863.20;;;16.01;64.49
56582;BME280;42463;52.214;21.238;2022-09-27T12:24:28;98862.64;;;16.05;64.30
56582;BME280;42463;52.214;21.238;2022-09-27T12:27:05;98859.12;;;16.01;64.19
56582;BME280;42463;52.214;21.238;2022-09-27T12:29:34;98858.13;;;16.01;64.42
56582;BME280;42463;52.214;21.238;2022-09-27T12:32:07;98856.14;;;16.06;64.60
56582;BME280;42463;52.214;21.238;2022-09-27T12:34:38;98850.72;;;16.09;64.25
56582;BME280;42463;52.214;21.238;2022-09-27T12:37:07;98848.19;;;16.12;64.47
56582;BME280;42463;52.214;21.238;2022-09-27T12:39:42;98844.72;;;16.17;64.44
56582;BME280;42463;52.214;21.238;2022-09-27T12:42:21;98843.64;;;16.21;64.08
56582;BME280;42463;52.214;21.238;2022-09-27T12:44:47;98842.12;;;16.22;63.57
56582;BME280;42463;52.214;21.238;2022-09-27T12:47:28;98841.32;;;16.22;63.45
56582;BME280;42463;52.214;21.238;2022-09-27T12:50:13;98836.71;;;16.22;63.76
56582;BME280;42463;52.214;21.238;2022-09-27T12:52:44;98838.98;;;16.26;63.85
56582;BME280;42463;52.214;21.238;2022-09-27T12:55:23;98835.24;;;16.26;63.64
56582;BME280;42463;52.214;21.238;2022-09-27T12:58:15;98833.33;;;16.29;63.63
56582;BME280;42463;52.214;21.238;2022-09-27T13:00:49;98826.14;;;16.30;63.30
56582;BME280;42463;52.214;21.238;2022-09-27T13:03:39;98821.84;;;16.29;63.21
56582;BME280;42463;52.214;21.238;2022-09-27T13:09:30;98818.17;;;16.48;63.44
56582;BME280;42463;52.214;21.238;2022-09-27T13:12:05;98814.18;;;16.58;62.72
56582;BME280;42463;52.214;21.238;2022-09-27T13:14:38;98813.45;;;16.57;62.61
56582;BME280;42463;52.214;21.238;2022-09-27T13:17:03;98815.39;;;16.61;62.28
56582;BME280;42463;52.214;21.238;2022-09-27T13:19:44;98814.94;;;16.66;62.07
56582;BME280;42463;52.214;21.238;2022-09-27T13:22:11;98810.67;;;16.75;61.64
56582;BME280;42463;52.214;21.238;2022-09-27T13:25:13;98809.91;;;16.80;61.13
56582;BME280;42463;52.214;21.238;2022-09-27T13:28:07;98803.63;;;16.84;61.00
56582;BME280;42463;52.214;21.238;2022-09-27T13:30:50;98802.95;;;16.88;61.04
56582;BME280;42463;52.214;21.238;2022-09-27T13:33:40;98796.64;;;16.91;61.16